createdAt,value
2017-11-13T00:00:41.290Z,93.27
2017-11-13T00:01:47.468Z,93.38
2017-11-13T00:02:53.601Z,93.48
2017-11-13T00:03:59.516Z,93.44
2017-11-13T00:05:05.664Z,93.47
2017-11-13T00:06:12.685Z,93.23
2017-11-13T00:07:19.494Z,93.08
2017-11-13T00:08:25.597Z,92.78
2017-11-13T00:09:31.689Z,92.98
2017-11-13T00:10:38.699Z,93.67
2017-11-13T00:11:44.839Z,93.30
2017-11-13T00:12:50.924Z,92.95
2017-11-13T00:13:57.029Z,93.28
2017-11-13T00:15:03.132Z,93.18
2017-11-13T00:16:09.132Z,92.96
2017-11-13T00:17:15.271Z,93.03
2017-11-13T00:18:21.359Z,93.10
2017-11-13T00:19:27.464Z,93.23
2017-11-13T00:20:34.533Z,92.95
2017-11-13T00:21:43.182Z,92.90
2017-11-13T00:22:49.316Z,92.97
2017-11-13T00:24:00.367Z,93.04
2017-11-13T00:25:06.488Z,92.90
2017-11-13T00:26:12.584Z,92.84
2017-11-13T00:27:18.703Z,92.88
2017-11-13T00:28:24.834Z,93.11
2017-11-13T00:29:31.428Z,92.90
2017-11-13T00:30:37.585Z,92.55
2017-11-13T00:31:50.525Z,92.43
2017-11-13T00:33:00.940Z,92.59
2017-11-13T00:34:08.652Z,93.24
2017-11-13T00:35:14.757Z,93.20
2017-11-13T00:36:21.707Z,93.44
2017-11-13T00:37:27.892Z,93.17
2017-11-13T00:38:33.973Z,93.25
2017-11-13T00:39:40.067Z,93.14
2017-11-13T00:40:46.200Z,93.03
2017-11-13T00:41:52.397Z,92.87
2017-11-13T00:42:58.547Z,92.69
2017-11-13T00:44:04.686Z,92.45
2017-11-13T00:45:10.798Z,92.60
2017-11-13T00:46:16.930Z,92.70
2017-11-13T00:47:23.125Z,93.09
2017-11-13T00:48:29.276Z,93.37
2017-11-13T00:49:35.440Z,93.04
2017-11-13T00:50:41.547Z,92.57
2017-11-13T00:51:47.707Z,92.55
2017-11-13T00:52:53.930Z,92.52
2017-11-13T00:54:00.000Z,92.48
2017-11-13T00:55:06.151Z,92.77
2017-11-13T00:56:12.361Z,92.80
2017-11-13T00:57:19.476Z,92.28
2017-11-13T00:58:25.614Z,92.67
2017-11-13T00:59:31.737Z,92.60
2017-11-13T01:00:37.830Z,92.80
2017-11-13T01:01:43.968Z,92.80
2017-11-13T01:02:50.104Z,93.64
2017-11-13T01:03:56.201Z,93.62
2017-11-13T01:05:02.319Z,93.45
2017-11-13T01:06:08.268Z,93.53
2017-11-13T01:07:14.448Z,93.40
2017-11-13T01:08:20.566Z,93.24
2017-11-13T01:09:26.715Z,93.12
2017-11-13T01:10:32.829Z,92.91
2017-11-13T01:11:41.481Z,92.66
2017-11-13T01:12:47.666Z,92.62
2017-11-13T01:13:53.890Z,92.89
2017-11-13T01:15:00.014Z,93.26
2017-11-13T01:16:06.138Z,93.92
2017-11-13T01:17:12.278Z,93.54
2017-11-13T01:18:18.424Z,93.12
2017-11-13T01:19:24.511Z,92.81
2017-11-13T01:20:30.610Z,92.82
2017-11-13T01:21:36.707Z,92.71
2017-11-13T01:22:42.609Z,92.98
2017-11-13T01:23:48.514Z,93.36
2017-11-13T01:24:54.575Z,93.63
2017-11-13T01:26:00.685Z,93.87
2017-11-13T01:27:06.808Z,93.55
2017-11-13T01:28:12.992Z,93.43
2017-11-13T01:29:19.151Z,93.27
2017-11-13T01:30:25.256Z,93.21
2017-11-13T01:31:31.384Z,93.11
2017-11-13T01:32:37.459Z,92.92
2017-11-13T01:33:43.588Z,93.02
2017-11-13T01:34:49.639Z,92.77
2017-11-13T01:35:55.751Z,92.45
2017-11-13T01:37:01.929Z,92.90
2017-11-13T01:38:07.363Z,93.37
2017-11-13T01:39:13.264Z,93.42
2017-11-13T01:40:19.402Z,93.52
2017-11-13T01:41:25.109Z,93.59
2017-11-13T01:42:31.237Z,93.07
2017-11-13T01:43:37.405Z,93.00
2017-11-13T01:44:43.564Z,93.05
2017-11-13T01:45:49.468Z,93.46
2017-11-13T01:46:55.355Z,93.53
2017-11-13T01:48:02.412Z,93.58
2017-11-13T01:49:08.502Z,93.06
2017-11-13T01:50:14.610Z,93.35
2017-11-13T01:51:20.857Z,93.49
2017-11-13T01:52:26.635Z,93.67
2017-11-13T01:53:32.733Z,93.32
2017-11-13T01:54:38.519Z,93.15
2017-11-13T01:55:44.442Z,93.06
2017-11-13T01:56:50.349Z,93.38
2017-11-13T01:57:58.284Z,93.72
2017-11-13T01:59:09.341Z,93.58
2017-11-13T02:00:14.618Z,93.36
2017-11-13T02:01:20.515Z,93.35
2017-11-13T02:02:26.506Z,93.43
2017-11-13T02:03:31.913Z,93.25
2017-11-13T02:04:38.054Z,93.34
2017-11-13T02:05:43.264Z,93.32
2017-11-13T02:06:49.216Z,93.61
2017-11-13T02:07:54.444Z,93.76
2017-11-13T02:08:59.652Z,93.82
2017-11-13T02:10:05.847Z,93.80
2017-11-13T02:11:11.014Z,93.65
2017-11-13T02:12:17.152Z,93.46
2017-11-13T02:13:22.938Z,93.37
2017-11-13T02:14:28.651Z,93.48
2017-11-13T02:15:34.788Z,93.40
2017-11-13T02:16:40.496Z,93.70
2017-11-13T02:17:46.393Z,93.87
2017-11-13T02:18:52.170Z,94.31
2017-11-13T02:19:57.712Z,94.45
2017-11-13T02:21:03.103Z,94.42
2017-11-13T02:22:08.280Z,94.20
2017-11-13T02:23:13.491Z,93.87
2017-11-13T02:24:18.731Z,93.72
2017-11-13T02:25:24.128Z,93.89
2017-11-13T02:26:29.513Z,94.19
2017-11-13T02:27:35.209Z,94.23
2017-11-13T02:28:41.900Z,94.42
2017-11-13T02:29:47.272Z,94.44
2017-11-13T02:30:52.723Z,94.80
2017-11-13T02:31:58.498Z,94.82
2017-11-13T02:33:07.116Z,94.82
2017-11-13T02:34:12.550Z,94.91
2017-11-13T02:35:17.685Z,94.90
2017-11-13T02:36:22.873Z,94.90
2017-11-13T02:37:28.113Z,94.78
2017-11-13T02:38:33.324Z,94.44
2017-11-13T02:39:38.736Z,94.27
2017-11-13T02:40:44.368Z,94.17
2017-11-13T02:41:49.568Z,94.01
2017-11-13T02:42:54.949Z,94.01
2017-11-13T02:44:00.172Z,94.29
2017-11-13T02:45:05.704Z,94.07
2017-11-13T02:46:15.103Z,93.84
2017-11-13T02:47:22.840Z,93.99
2017-11-13T02:48:28.328Z,93.91
2017-11-13T02:49:33.725Z,94.30
2017-11-13T02:50:39.790Z,94.46
2017-11-13T02:51:46.086Z,94.85
2017-11-13T02:52:51.279Z,94.66
2017-11-13T02:53:56.467Z,94.60
2017-11-13T02:55:01.995Z,94.78
2017-11-13T02:56:07.393Z,94.53
2017-11-13T02:57:12.964Z,94.40
2017-11-13T02:58:20.153Z,94.64
2017-11-13T02:59:25.631Z,94.63
2017-11-13T03:00:31.227Z,94.29
2017-11-13T03:01:37.215Z,94.62
2017-11-13T03:02:43.332Z,94.80
2017-11-13T03:03:49.467Z,94.61
2017-11-13T03:04:55.033Z,94.64
2017-11-13T03:06:01.167Z,94.91
2017-11-13T03:07:07.116Z,94.98
2017-11-13T03:08:13.256Z,94.77
2017-11-13T03:09:19.227Z,94.59
2017-11-13T03:10:25.080Z,94.85
2017-11-13T03:11:31.217Z,95.08
2017-11-13T03:12:37.495Z,95.16
2017-11-13T03:13:43.664Z,95.47
2017-11-13T03:14:49.786Z,95.94
2017-11-13T03:15:55.979Z,95.90
2017-11-13T03:17:01.785Z,96.36
2017-11-13T03:18:07.915Z,96.33
2017-11-13T03:19:14.040Z,96.31
2017-11-13T03:20:19.788Z,96.10
2017-11-13T03:21:25.894Z,96.33
2017-11-13T03:22:32.029Z,96.33
2017-11-13T03:23:38.262Z,95.95
2017-11-13T03:24:44.037Z,96.18
2017-11-13T03:25:50.139Z,96.13
2017-11-13T03:26:56.234Z,96.18
2017-11-13T03:28:02.439Z,96.15
2017-11-13T03:29:13.197Z,96.16
2017-11-13T03:30:19.365Z,96.37
2017-11-13T03:31:36.075Z,96.03
2017-11-13T03:32:43.120Z,95.91
2017-11-13T03:33:49.211Z,95.78
2017-11-13T03:34:55.343Z,96.34
2017-11-13T03:36:01.519Z,96.66
2017-11-13T03:37:07.614Z,96.49
2017-11-13T03:38:13.756Z,96.36
2017-11-13T03:39:19.884Z,96.28
2017-11-13T03:40:25.855Z,96.19
2017-11-13T03:41:31.949Z,96.23
2017-11-13T03:42:41.589Z,96.03
2017-11-13T03:43:47.737Z,96.27
2017-11-13T03:44:53.884Z,96.19
2017-11-13T03:45:59.972Z,96.34
2017-11-13T03:47:06.085Z,96.31
2017-11-13T03:48:12.723Z,96.40
2017-11-13T03:49:20.929Z,96.56
2017-11-13T03:50:27.181Z,96.36
2017-11-13T03:51:33.277Z,96.58
2017-11-13T03:52:39.404Z,96.64
2017-11-13T03:53:45.533Z,96.76
2017-11-13T03:54:51.662Z,96.71
2017-11-13T03:55:57.615Z,96.61
2017-11-13T03:57:03.743Z,96.69
2017-11-13T03:58:09.139Z,97.00
2017-11-13T03:59:16.055Z,97.13
2017-11-13T04:00:22.191Z,97.05
2017-11-13T04:01:28.342Z,97.18
2017-11-13T04:02:34.452Z,97.34
2017-11-13T04:03:41.395Z,97.48
2017-11-13T04:04:47.542Z,97.29
2017-11-13T04:05:53.664Z,96.83
2017-11-13T04:06:59.801Z,96.78
2017-11-13T04:08:05.944Z,97.04
2017-11-13T04:09:11.727Z,97.15
2017-11-13T04:10:17.970Z,97.13
2017-11-13T04:11:23.908Z,96.91
2017-11-13T04:12:30.031Z,96.91
2017-11-13T04:13:35.988Z,97.06
2017-11-13T04:14:42.128Z,97.38
2017-11-13T04:15:48.351Z,97.32
2017-11-13T04:16:54.442Z,97.53
2017-11-13T04:18:02.631Z,97.46
2017-11-13T04:19:11.316Z,97.48
2017-11-13T04:20:17.469Z,97.29
2017-11-13T04:21:23.684Z,97.22
2017-11-13T04:22:29.813Z,97.12
2017-11-13T04:23:35.722Z,97.29
2017-11-13T04:24:41.848Z,97.19
2017-11-13T04:25:47.992Z,97.16
2017-11-13T04:26:54.144Z,97.07
2017-11-13T04:28:00.284Z,96.96
2017-11-13T04:29:06.468Z,97.08
2017-11-13T04:30:12.652Z,96.77
2017-11-13T04:31:18.856Z,96.60
2017-11-13T04:32:25.058Z,96.31
2017-11-13T04:33:31.180Z,96.32
2017-11-13T04:34:37.307Z,96.45
2017-11-13T04:35:43.467Z,96.63
2017-11-13T04:36:49.601Z,96.56
2017-11-13T04:37:55.756Z,96.43
2017-11-13T04:39:07.789Z,96.27
2017-11-13T04:40:13.895Z,96.10
2017-11-13T04:41:20.044Z,96.19
2017-11-13T04:42:26.170Z,96.43
2017-11-13T04:43:32.259Z,96.81
2017-11-13T04:44:39.099Z,96.86
2017-11-13T04:45:45.246Z,96.63
2017-11-13T04:46:51.998Z,96.47
2017-11-13T04:47:59.132Z,96.70
2017-11-13T04:49:05.687Z,96.73
2017-11-13T04:50:11.970Z,96.84
2017-11-13T04:51:19.425Z,96.81
2017-11-13T04:52:25.838Z,96.73
2017-11-13T04:53:32.588Z,96.74
2017-11-13T04:54:38.717Z,96.54
2017-11-13T04:55:44.850Z,96.44
2017-11-13T04:56:50.958Z,96.77
2017-11-13T04:57:57.065Z,96.79
2017-11-13T04:59:03.201Z,96.76
2017-11-13T05:00:09.300Z,96.57
2017-11-13T05:01:15.563Z,96.26
2017-11-13T05:02:21.787Z,95.96
2017-11-13T05:03:27.983Z,95.65
2017-11-13T05:04:33.952Z,95.38
2017-11-13T05:05:39.418Z,94.92
2017-11-13T05:06:44.680Z,94.67
2017-11-13T05:07:50.644Z,94.52
2017-11-13T05:08:56.485Z,94.48
2017-11-13T05:10:02.764Z,94.41
2017-11-13T05:11:08.282Z,94.40
2017-11-13T05:12:14.664Z,94.60
2017-11-13T05:13:20.485Z,94.80
2017-11-13T05:14:26.709Z,95.00
2017-11-13T05:15:32.854Z,95.15
2017-11-13T05:16:38.715Z,95.31
2017-11-13T05:17:44.905Z,95.22
2017-11-13T05:18:51.231Z,95.32
2017-11-13T05:19:57.336Z,95.06
2017-11-13T05:21:03.321Z,95.37
2017-11-13T05:22:09.090Z,95.23
2017-11-13T05:23:14.954Z,95.04
2017-11-13T05:24:20.594Z,94.81
2017-11-13T05:25:26.180Z,95.01
2017-11-13T05:26:31.963Z,95.19
2017-11-13T05:27:38.141Z,95.42
2017-11-13T05:28:44.328Z,95.84
2017-11-13T05:29:50.454Z,95.76
2017-11-13T05:30:57.669Z,95.88
2017-11-13T05:32:04.416Z,96.07
2017-11-13T05:33:10.121Z,95.87
2017-11-13T05:34:16.183Z,95.80
2017-11-13T05:35:24.134Z,95.75
2017-11-13T05:36:30.349Z,95.69
2017-11-13T05:37:36.470Z,95.53
2017-11-13T05:38:42.414Z,95.41
2017-11-13T05:39:48.529Z,95.15
2017-11-13T05:40:54.600Z,95.03
2017-11-13T05:42:00.735Z,95.21
2017-11-13T05:43:06.640Z,95.62
2017-11-13T05:44:12.780Z,95.45
2017-11-13T05:45:18.875Z,95.09
2017-11-13T05:46:25.112Z,94.97
2017-11-13T05:47:31.295Z,94.70
2017-11-13T05:48:37.438Z,94.83
2017-11-13T05:49:43.381Z,94.75
2017-11-13T05:50:49.517Z,94.70
2017-11-13T05:51:55.677Z,94.65
2017-11-13T05:53:01.789Z,94.81
2017-11-13T05:54:07.925Z,94.68
2017-11-13T05:55:14.049Z,94.46
2017-11-13T05:56:20.232Z,94.55
2017-11-13T05:57:26.363Z,94.43
2017-11-13T05:58:32.497Z,94.36
2017-11-13T05:59:38.775Z,94.31
2017-11-13T06:00:44.920Z,94.41
2017-11-13T06:01:51.087Z,94.38
2017-11-13T06:02:57.209Z,94.59
2017-11-13T06:04:13.760Z,94.47
2017-11-13T06:05:23.849Z,94.30
2017-11-13T06:06:30.110Z,94.35
2017-11-13T06:07:36.308Z,94.47
2017-11-13T06:08:42.450Z,94.49
2017-11-13T06:09:48.608Z,94.86
2017-11-13T06:10:54.781Z,95.07
2017-11-13T06:12:01.239Z,95.04
2017-11-13T06:13:07.351Z,94.91
2017-11-13T06:14:13.510Z,94.65
2017-11-13T06:15:19.653Z,94.68
2017-11-13T06:16:27.325Z,94.62
2017-11-13T06:17:33.269Z,95.16
2017-11-13T06:18:39.415Z,95.23
2017-11-13T06:19:45.545Z,94.94
2017-11-13T06:20:51.655Z,94.98
2017-11-13T06:21:57.810Z,95.09
2017-11-13T06:23:03.938Z,95.25
2017-11-13T06:24:10.108Z,94.99
2017-11-13T06:25:16.241Z,94.90
2017-11-13T06:26:22.346Z,94.95
2017-11-13T06:27:28.503Z,95.14
2017-11-13T06:28:34.601Z,94.83
2017-11-13T06:29:40.766Z,94.66
2017-11-13T06:30:46.894Z,94.72
2017-11-13T06:31:53.040Z,94.71
2017-11-13T06:32:58.985Z,94.44
2017-11-13T06:34:05.112Z,94.45
2017-11-13T06:35:11.252Z,94.34
2017-11-13T06:36:17.402Z,94.35
2017-11-13T06:37:23.616Z,94.45
2017-11-13T06:38:29.755Z,95.06
2017-11-13T06:39:35.855Z,95.15
2017-11-13T06:40:41.995Z,94.78
2017-11-13T06:41:48.144Z,94.90
2017-11-13T06:42:54.310Z,94.90
2017-11-13T06:44:00.514Z,94.96
2017-11-13T06:45:06.648Z,94.85
2017-11-13T06:46:12.761Z,94.66
2017-11-13T06:47:18.910Z,94.73
2017-11-13T06:48:25.046Z,94.90
2017-11-13T06:49:31.158Z,95.05
2017-11-13T06:50:37.284Z,94.99
2017-11-13T06:51:43.535Z,94.60
2017-11-13T06:52:49.770Z,94.83
2017-11-13T06:53:56.047Z,94.84
2017-11-13T06:55:02.313Z,94.90
2017-11-13T06:56:08.583Z,94.90
2017-11-13T06:57:14.729Z,94.80
2017-11-13T06:58:20.909Z,94.79
2017-11-13T06:59:27.109Z,94.82
2017-11-13T07:00:33.321Z,94.86
2017-11-13T07:01:39.487Z,95.00
2017-11-13T07:02:45.690Z,94.96
2017-11-13T07:03:51.800Z,94.72
2017-11-13T07:04:57.901Z,94.85
2017-11-13T07:06:04.044Z,94.89
2017-11-13T07:07:10.038Z,94.82
2017-11-13T07:08:16.183Z,94.71
2017-11-13T07:09:22.297Z,94.95
2017-11-13T07:10:28.400Z,94.95
2017-11-13T07:11:34.511Z,94.93
2017-11-13T07:12:40.325Z,94.93
2017-11-13T07:13:46.493Z,94.73
2017-11-13T07:14:52.635Z,94.88
2017-11-13T07:15:58.778Z,94.88
2017-11-13T07:17:04.939Z,95.03
2017-11-13T07:18:11.103Z,94.93
2017-11-13T07:19:17.224Z,94.36
2017-11-13T07:20:23.489Z,94.22
2017-11-13T07:21:29.610Z,93.87
2017-11-13T07:22:35.520Z,93.26
2017-11-13T07:23:41.475Z,93.20
2017-11-13T07:24:47.616Z,93.11
2017-11-13T07:25:53.558Z,93.15
2017-11-13T07:26:59.736Z,93.03
2017-11-13T07:28:05.898Z,92.76
2017-11-13T07:29:12.041Z,92.46
2017-11-13T07:30:18.242Z,92.30
2017-11-13T07:31:24.190Z,92.15
2017-11-13T07:32:30.143Z,91.70
2017-11-13T07:33:36.315Z,91.82
2017-11-13T07:34:42.464Z,91.93
2017-11-13T07:35:48.594Z,92.15
2017-11-13T07:36:54.726Z,92.41
2017-11-13T07:38:00.877Z,92.38
2017-11-13T07:39:07.321Z,92.23
2017-11-13T07:40:13.261Z,92.60
2017-11-13T07:41:19.192Z,92.40
2017-11-13T07:42:25.136Z,92.54
2017-11-13T07:43:31.285Z,92.51
2017-11-13T07:44:37.214Z,92.50
2017-11-13T07:45:43.302Z,92.52
2017-11-13T07:46:49.431Z,92.19
2017-11-13T07:47:55.604Z,92.26
2017-11-13T07:49:01.729Z,92.39
2017-11-13T07:50:08.062Z,92.33
2017-11-13T07:51:14.199Z,92.31
2017-11-13T07:52:20.348Z,92.30
2017-11-13T07:53:26.496Z,92.52
2017-11-13T07:54:32.600Z,92.58
2017-11-13T07:55:38.743Z,92.82
2017-11-13T07:56:44.882Z,92.82
2017-11-13T07:57:51.015Z,92.88
2017-11-13T07:58:57.143Z,93.09
2017-11-13T08:00:03.284Z,93.21
2017-11-13T08:01:10.112Z,93.19
2017-11-13T08:02:17.935Z,93.18
2017-11-13T08:03:25.262Z,92.97
2017-11-13T08:04:32.301Z,93.10
2017-11-13T08:05:38.644Z,92.77
2017-11-13T08:06:45.115Z,92.89
2017-11-13T08:07:51.972Z,93.29
2017-11-13T08:08:58.703Z,93.34
2017-11-13T08:10:06.931Z,93.27
2017-11-13T08:11:13.954Z,93.34
2017-11-13T08:12:22.573Z,92.97
2017-11-13T08:13:30.875Z,93.03
2017-11-13T08:14:37.986Z,93.50
2017-11-13T08:15:48.417Z,93.51
2017-11-13T08:16:55.562Z,93.40
2017-11-13T08:18:02.765Z,93.59
2017-11-13T08:19:10.934Z,93.60
2017-11-13T08:20:17.999Z,93.27
2017-11-13T08:21:25.630Z,93.02
2017-11-13T08:22:33.998Z,93.87
2017-11-13T08:23:41.239Z,93.81
2017-11-13T08:24:48.760Z,93.82
2017-11-13T08:25:55.778Z,93.82
2017-11-13T08:27:03.081Z,93.78
2017-11-13T08:28:10.180Z,93.84
2017-11-13T08:29:17.387Z,93.90
2017-11-13T08:30:24.485Z,93.93
2017-11-13T08:31:31.785Z,94.11
2017-11-13T08:32:38.841Z,94.19
2017-11-13T08:33:46.277Z,94.14
2017-11-13T08:34:53.349Z,93.88
2017-11-13T08:36:01.105Z,93.94
2017-11-13T08:37:10.712Z,94.15
2017-11-13T08:38:20.666Z,94.05
2017-11-13T08:39:28.675Z,94.08
2017-11-13T08:40:35.722Z,94.08
2017-11-13T08:41:44.312Z,93.73
2017-11-13T08:42:52.121Z,93.82
2017-11-13T08:43:59.334Z,94.18
2017-11-13T08:45:06.311Z,93.95
2017-11-13T08:46:13.315Z,93.68
2017-11-13T08:47:20.874Z,93.17
2017-11-13T08:48:28.021Z,93.29
2017-11-13T08:49:35.271Z,92.98
2017-11-13T08:50:42.229Z,92.99
2017-11-13T08:51:49.323Z,92.96
2017-11-13T08:52:57.830Z,92.90
2017-11-13T08:54:05.916Z,92.87
2017-11-13T08:55:13.585Z,92.89
2017-11-13T08:56:20.615Z,92.56
2017-11-13T08:57:28.508Z,92.50
2017-11-13T08:58:36.142Z,92.52
2017-11-13T08:59:43.274Z,92.44
2017-11-13T09:00:50.638Z,92.41
2017-11-13T09:01:57.952Z,92.23
2017-11-13T09:03:05.249Z,92.34
2017-11-13T09:04:12.401Z,92.19
2017-11-13T09:05:19.684Z,92.37
2017-11-13T09:06:26.926Z,92.82
2017-11-13T09:07:33.961Z,92.96
2017-11-13T09:08:40.965Z,92.77
2017-11-13T09:09:47.758Z,92.65
2017-11-13T09:10:54.795Z,92.56
2017-11-13T09:12:02.052Z,92.18
2017-11-13T09:13:09.389Z,92.10
2017-11-13T09:14:16.380Z,91.92
2017-11-13T09:15:23.186Z,91.56
2017-11-13T09:16:30.145Z,91.64
2017-11-13T09:17:37.772Z,91.62
2017-11-13T09:18:45.028Z,91.49
2017-11-13T09:19:51.775Z,91.57
2017-11-13T09:20:59.081Z,91.54
2017-11-13T09:22:06.315Z,91.44
2017-11-13T09:23:13.365Z,91.55
2017-11-13T09:24:21.144Z,91.49
2017-11-13T09:25:29.041Z,91.71
2017-11-13T09:26:36.356Z,91.70
2017-11-13T09:27:43.568Z,91.92
2017-11-13T09:28:50.675Z,92.06
2017-11-13T09:29:58.359Z,91.80
2017-11-13T09:31:05.326Z,91.63
2017-11-13T09:32:12.351Z,91.74
2017-11-13T09:33:19.425Z,91.64
2017-11-13T09:34:26.405Z,91.52
2017-11-13T09:35:32.854Z,90.98
2017-11-13T09:36:38.707Z,90.90
2017-11-13T09:37:45.024Z,91.10
2017-11-13T09:38:51.535Z,91.56
2017-11-13T09:39:56.799Z,91.46
2017-11-13T09:41:02.535Z,91.42
2017-11-13T09:42:08.456Z,91.19
2017-11-13T09:43:14.199Z,90.98
2017-11-13T09:44:20.302Z,90.89
2017-11-13T09:45:30.502Z,90.77
2017-11-13T09:46:36.634Z,90.67
2017-11-13T09:47:46.347Z,91.11
2017-11-13T09:48:52.082Z,90.75
2017-11-13T09:49:57.849Z,90.82
2017-11-13T09:51:03.587Z,91.03
2017-11-13T09:52:08.979Z,91.22
2017-11-13T09:53:14.511Z,91.49
2017-11-13T09:54:20.664Z,91.49
2017-11-13T09:55:26.720Z,91.47
2017-11-13T09:56:32.982Z,91.07
2017-11-13T09:57:39.178Z,90.94
2017-11-13T09:58:45.357Z,90.71
2017-11-13T09:59:53.392Z,90.63
2017-11-13T10:00:59.169Z,90.42
2017-11-13T10:02:04.597Z,90.43
2017-11-13T10:03:10.720Z,90.62
2017-11-13T10:04:17.421Z,90.52
2017-11-13T10:05:23.545Z,90.31
2017-11-13T10:06:29.675Z,90.24
2017-11-13T10:07:35.601Z,90.08
2017-11-13T10:08:41.759Z,90.22
2017-11-13T10:09:47.540Z,90.26
2017-11-13T10:10:53.274Z,90.18
2017-11-13T10:11:59.407Z,90.13
2017-11-13T10:13:05.196Z,89.99
2017-11-13T10:14:11.401Z,89.99
2017-11-13T10:15:17.589Z,89.98
2017-11-13T10:16:23.168Z,89.78
2017-11-13T10:17:29.271Z,89.98
2017-11-13T10:18:35.179Z,89.71
2017-11-13T10:19:41.123Z,89.38
2017-11-13T10:20:46.856Z,89.52
2017-11-13T10:21:53.099Z,89.66
2017-11-13T10:22:59.229Z,89.14
2017-11-13T10:24:06.084Z,89.06
2017-11-13T10:25:11.357Z,88.94
2017-11-13T10:26:17.009Z,88.85
2017-11-13T10:27:23.208Z,88.98
2017-11-13T10:28:29.316Z,89.07
2017-11-13T10:29:35.254Z,88.72
2017-11-13T10:30:41.389Z,88.91
2017-11-13T10:31:47.343Z,88.73
2017-11-13T10:32:53.250Z,88.71
2017-11-13T10:33:59.273Z,88.50
2017-11-13T10:35:05.337Z,88.51
2017-11-13T10:36:11.521Z,88.52
2017-11-13T10:37:17.765Z,88.36
2017-11-13T10:38:23.761Z,88.34
2017-11-13T10:39:29.732Z,88.55
2017-11-13T10:40:36.037Z,89.06
2017-11-13T10:41:42.165Z,89.30
2017-11-13T10:42:48.264Z,89.23
2017-11-13T10:43:54.370Z,89.12
2017-11-13T10:45:00.151Z,89.40
2017-11-13T10:46:06.029Z,89.48
2017-11-13T10:47:11.735Z,89.37
2017-11-13T10:48:17.527Z,88.90
2017-11-13T10:49:23.454Z,88.98
2017-11-13T10:50:28.903Z,88.91
2017-11-13T10:51:37.871Z,88.88
2017-11-13T10:52:43.964Z,88.85
2017-11-13T10:53:50.752Z,88.71
2017-11-13T10:54:56.465Z,88.80
2017-11-13T10:56:02.036Z,88.84
2017-11-13T10:57:07.410Z,88.76
2017-11-13T10:58:13.177Z,88.32
2017-11-13T10:59:18.723Z,88.31
2017-11-13T11:00:23.910Z,88.16
2017-11-13T11:01:29.562Z,88.08
2017-11-13T11:02:35.308Z,87.70
2017-11-13T11:03:41.306Z,87.42
2017-11-13T11:04:46.861Z,87.27
2017-11-13T11:05:52.787Z,87.50
2017-11-13T11:07:01.956Z,87.87
2017-11-13T11:08:07.516Z,87.52
2017-11-13T11:09:13.079Z,87.47
2017-11-13T11:10:18.643Z,87.32
2017-11-13T11:11:24.601Z,86.81
2017-11-13T11:12:30.502Z,86.85
2017-11-13T11:13:46.337Z,86.96
2017-11-13T11:14:53.807Z,87.25
2017-11-13T11:15:59.464Z,86.56
2017-11-13T11:17:10.898Z,85.89
2017-11-13T11:18:16.773Z,85.15
2017-11-13T11:19:38.931Z,85.10
2017-11-13T11:21:13.402Z,85.10
2017-11-13T11:22:30.976Z,84.98
2017-11-13T11:23:38.405Z,85.01
2017-11-13T11:24:44.330Z,85.30
2017-11-13T11:26:08.961Z,85.55
2017-11-13T11:27:30.614Z,85.99
2017-11-13T11:28:37.089Z,85.76
2017-11-13T11:30:02.850Z,86.12
2017-11-13T11:31:35.050Z,85.92
2017-11-13T11:32:46.529Z,85.30
2017-11-13T11:33:53.407Z,85.31
2017-11-13T11:34:59.303Z,85.45
2017-11-13T11:36:20.587Z,85.66
2017-11-13T11:37:56.873Z,85.52
2017-11-13T11:39:02.780Z,85.45
2017-11-13T11:40:08.462Z,85.21
2017-11-13T11:41:14.376Z,85.27
2017-11-13T11:42:20.085Z,85.37
2017-11-13T11:43:26.032Z,85.75
2017-11-13T11:44:50.253Z,86.00
2017-11-13T11:46:13.900Z,85.72
2017-11-13T11:47:30.654Z,85.42
2017-11-13T11:48:38.023Z,85.05
2017-11-13T11:49:48.708Z,84.75
2017-11-13T11:50:54.508Z,85.25
2017-11-13T11:52:00.425Z,85.20
2017-11-13T11:53:06.005Z,84.88
2017-11-13T11:54:14.951Z,84.51
2017-11-13T11:55:35.724Z,84.14
2017-11-13T11:56:40.988Z,84.32
2017-11-13T11:57:46.551Z,85.03
2017-11-13T11:58:52.149Z,83.65
2017-11-13T12:00:03.426Z,83.74
2017-11-13T12:01:09.019Z,83.58
2017-11-13T12:02:15.734Z,82.97
2017-11-13T12:03:21.830Z,83.60
2017-11-13T12:04:27.606Z,83.87
2017-11-13T12:05:33.110Z,83.98
2017-11-13T12:06:38.909Z,82.96
2017-11-13T12:07:45.012Z,81.94
2017-11-13T12:08:50.961Z,81.96
2017-11-13T12:09:57.091Z,82.46
2017-11-13T12:11:03.238Z,82.50
2017-11-13T12:12:09.166Z,82.58
2017-11-13T12:13:14.893Z,82.61
2017-11-13T12:14:20.975Z,82.40
2017-11-13T12:15:27.163Z,81.99
2017-11-13T12:16:33.326Z,82.51
2017-11-13T12:17:39.441Z,82.73
2017-11-13T12:18:45.522Z,82.69
2017-11-13T12:19:51.246Z,83.32
2017-11-13T12:20:57.020Z,83.81
2017-11-13T12:22:03.108Z,83.89
2017-11-13T12:23:09.213Z,83.34
2017-11-13T12:24:15.304Z,83.59
2017-11-13T12:25:21.408Z,83.49
2017-11-13T12:26:27.199Z,83.74
2017-11-13T12:27:33.380Z,83.83
2017-11-13T12:28:40.189Z,83.72
2017-11-13T12:29:46.816Z,82.52
2017-11-13T12:30:52.948Z,82.65
2017-11-13T12:31:59.094Z,82.62
2017-11-13T12:33:05.220Z,82.34
2017-11-13T12:34:11.317Z,82.73
2017-11-13T12:35:17.111Z,81.80
2017-11-13T12:36:23.231Z,81.26
2017-11-13T12:37:29.346Z,81.70
2017-11-13T12:38:35.421Z,81.84
2017-11-13T12:39:41.516Z,82.52
2017-11-13T12:40:47.619Z,81.96
2017-11-13T12:41:53.784Z,82.08
2017-11-13T12:42:59.927Z,82.39
2017-11-13T12:44:06.019Z,82.60
2017-11-13T12:45:12.106Z,82.78
2017-11-13T12:46:18.229Z,82.52
2017-11-13T12:47:24.365Z,82.22
2017-11-13T12:48:30.454Z,81.73
2017-11-13T12:49:37.388Z,82.02
2017-11-13T12:50:43.581Z,82.27
2017-11-13T12:51:49.516Z,81.81
2017-11-13T12:52:55.299Z,81.43
2017-11-13T12:54:01.414Z,81.81
2017-11-13T12:55:07.361Z,81.92
2017-11-13T12:56:13.496Z,81.50
2017-11-13T12:57:19.442Z,81.61
2017-11-13T12:58:25.554Z,81.56
2017-11-13T12:59:31.477Z,81.39
2017-11-13T13:00:37.564Z,81.63
2017-11-13T13:01:43.687Z,81.95
2017-11-13T13:02:49.783Z,82.00
2017-11-13T13:03:55.512Z,82.11
2017-11-13T13:05:01.649Z,82.14
2017-11-13T13:06:07.025Z,82.20
2017-11-13T13:07:13.168Z,82.24
2017-11-13T13:08:18.948Z,82.33
2017-11-13T13:09:25.071Z,82.38
2017-11-13T13:10:31.091Z,82.14
2017-11-13T13:11:37.167Z,82.40
2017-11-13T13:12:43.282Z,82.21
2017-11-13T13:13:49.380Z,82.14
2017-11-13T13:14:54.806Z,82.74
2017-11-13T13:16:00.917Z,82.86
2017-11-13T13:17:06.676Z,82.66
2017-11-13T13:18:12.764Z,82.41
2017-11-13T13:19:18.494Z,82.07
2017-11-13T13:20:24.569Z,82.00
2017-11-13T13:21:30.658Z,82.25
2017-11-13T13:22:36.792Z,82.48
2017-11-13T13:23:42.694Z,82.78
2017-11-13T13:24:48.827Z,83.16
2017-11-13T13:25:54.928Z,83.50
2017-11-13T13:27:01.057Z,83.58
2017-11-13T13:28:06.998Z,83.53
2017-11-13T13:29:12.923Z,83.80
2017-11-13T13:30:19.015Z,83.82
2017-11-13T13:31:25.104Z,83.82
2017-11-13T13:32:31.250Z,83.86
2017-11-13T13:33:37.643Z,83.95
2017-11-13T13:34:43.556Z,83.89
2017-11-13T13:35:49.674Z,83.66
2017-11-13T13:36:55.631Z,83.61
2017-11-13T13:38:01.726Z,84.05
2017-11-13T13:39:07.804Z,84.02
2017-11-13T13:40:13.711Z,84.25
2017-11-13T13:41:19.841Z,83.99
2017-11-13T13:42:25.996Z,84.08
2017-11-13T13:43:32.096Z,84.12
2017-11-13T13:44:38.217Z,84.02
2017-11-13T13:45:44.332Z,84.23
2017-11-13T13:46:50.430Z,84.47
2017-11-13T13:47:56.613Z,84.36
2017-11-13T13:49:02.705Z,84.58
2017-11-13T13:50:08.623Z,84.33
2017-11-13T13:51:14.728Z,84.35
2017-11-13T13:52:20.847Z,84.44
2017-11-13T13:53:26.740Z,84.33
2017-11-13T13:54:32.879Z,84.27
2017-11-13T13:55:38.980Z,83.99
2017-11-13T13:56:45.045Z,83.98
2017-11-13T13:57:50.998Z,83.91
2017-11-13T13:58:56.891Z,84.01
2017-11-13T14:00:02.987Z,84.41
2017-11-13T14:01:09.365Z,84.53
2017-11-13T14:02:15.475Z,84.52
2017-11-13T14:03:21.070Z,85.13
2017-11-13T14:04:27.187Z,85.18
2017-11-13T14:05:33.123Z,85.09
2017-11-13T14:06:39.248Z,84.88
2017-11-13T14:07:45.197Z,84.78
2017-11-13T14:08:51.120Z,84.66
2017-11-13T14:09:57.292Z,84.58
2017-11-13T14:11:03.193Z,84.54
2017-11-13T14:12:09.154Z,84.63
2017-11-13T14:13:15.110Z,84.78
2017-11-13T14:14:21.173Z,84.82
2017-11-13T14:15:27.282Z,84.95
2017-11-13T14:16:33.379Z,84.82
2017-11-13T14:17:39.511Z,84.64
2017-11-13T14:18:45.443Z,84.56